createdAt,value
2018-12-14T00:01:27.681Z,21.00
2018-12-14T00:03:55.841Z,24.70
2018-12-14T00:06:23.957Z,24.40
2018-12-14T00:08:52.194Z,24.03
2018-12-14T00:11:20.313Z,28.73
2018-12-14T00:13:48.476Z,24.93
2018-12-14T00:16:16.637Z,26.33
2018-12-14T00:18:44.739Z,24.17
2018-12-14T00:21:12.873Z,26.47
2018-12-14T00:23:41.013Z,27.67
2018-12-14T00:26:09.236Z,30.30
2018-12-14T00:28:37.371Z,27.00
2018-12-14T00:31:05.577Z,31.03
2018-12-14T00:33:33.723Z,26.90
2018-12-14T00:36:01.838Z,27.27
2018-12-14T00:38:30.055Z,26.97
2018-12-14T00:40:58.170Z,29.27
2018-12-14T00:43:26.325Z,30.00
2018-12-14T00:45:54.434Z,30.30
2018-12-14T00:48:22.565Z,31.40
2018-12-14T00:50:50.720Z,30.50
2018-12-14T00:53:18.881Z,32.33
2018-12-14T00:55:46.993Z,31.70
2018-12-14T00:58:15.102Z,31.50
2018-12-14T01:00:43.269Z,26.20
2018-12-14T01:03:11.387Z,30.13
2018-12-14T01:05:39.513Z,29.10
2018-12-14T01:08:07.629Z,30.07
2018-12-14T01:10:35.762Z,27.53
2018-12-14T01:13:03.918Z,30.27
2018-12-14T01:15:32.086Z,27.60
2018-12-14T01:18:00.225Z,26.87
2018-12-14T01:20:28.366Z,29.33
2018-12-14T01:22:56.528Z,23.87
2018-12-14T01:25:24.646Z,27.80
2018-12-14T01:27:52.768Z,23.77
2018-12-14T01:30:20.925Z,25.03
2018-12-14T01:32:49.070Z,28.33
2018-12-14T01:35:17.225Z,26.63
2018-12-14T01:37:45.342Z,26.67
2018-12-14T01:40:13.595Z,27.33
2018-12-14T01:42:41.730Z,23.20
2018-12-14T01:45:09.834Z,25.67
2018-12-14T01:47:38.022Z,24.50
2018-12-14T01:50:06.414Z,25.63
2018-12-14T01:52:34.789Z,22.40
2018-12-14T01:55:03.015Z,23.47
2018-12-14T01:57:31.205Z,24.07
2018-12-14T01:59:59.342Z,25.03
2018-12-14T02:02:27.481Z,26.33
2018-12-14T02:04:55.626Z,28.33
2018-12-14T02:07:23.767Z,27.53
2018-12-14T02:09:51.909Z,25.57
2018-12-14T02:12:20.042Z,27.63
2018-12-14T02:14:48.187Z,27.03
2018-12-14T02:17:16.314Z,25.77
2018-12-14T02:19:44.545Z,26.53
2018-12-14T02:22:12.681Z,28.33
2018-12-14T02:24:40.823Z,23.63
2018-12-14T02:27:08.934Z,25.87
2018-12-14T02:29:37.097Z,25.57
2018-12-14T02:32:05.601Z,27.70
2018-12-14T02:34:33.718Z,25.83
2018-12-14T02:37:01.853Z,24.40
2018-12-14T02:39:29.985Z,26.33
2018-12-14T02:41:58.100Z,24.40
2018-12-14T02:44:26.242Z,23.57
2018-12-14T02:46:54.382Z,22.80
2018-12-14T02:49:22.498Z,24.67
2018-12-14T02:51:50.685Z,23.70
2018-12-14T02:54:18.866Z,23.60
2018-12-14T02:56:47.011Z,25.40
2018-12-14T02:59:15.251Z,25.40
2018-12-14T03:01:43.393Z,24.90
2018-12-14T03:04:11.498Z,25.07
2018-12-14T03:06:39.649Z,24.10
2018-12-14T03:09:07.974Z,26.90
2018-12-14T03:11:36.111Z,26.57
2018-12-14T03:14:04.458Z,28.70
2018-12-14T03:16:32.564Z,24.13
2018-12-14T03:19:00.671Z,26.33
2018-12-14T03:21:28.810Z,26.77
2018-12-14T03:23:56.979Z,26.97
2018-12-14T03:26:25.102Z,26.77
2018-12-14T03:28:53.209Z,26.27
2018-12-14T03:31:21.348Z,25.30
2018-12-14T03:33:49.465Z,27.60
2018-12-14T03:36:17.699Z,28.13
2018-12-14T03:38:45.806Z,28.20
2018-12-14T03:41:13.968Z,28.17
2018-12-14T03:43:42.107Z,26.87
2018-12-14T03:46:10.227Z,27.80
2018-12-14T03:48:38.474Z,27.67
2018-12-14T03:51:06.678Z,30.73
2018-12-14T03:53:34.793Z,31.40
2018-12-14T03:56:02.930Z,29.47
2018-12-14T03:58:31.038Z,30.97
2018-12-14T04:00:59.165Z,29.80
2018-12-14T04:03:27.336Z,29.17
2018-12-14T04:05:55.478Z,27.93
2018-12-14T04:08:23.585Z,32.73
2018-12-14T04:10:51.718Z,34.30
2018-12-14T04:13:19.858Z,35.43
2018-12-14T04:15:48.006Z,31.53
2018-12-14T04:18:16.134Z,37.43
2018-12-14T04:20:44.243Z,29.57
2018-12-14T04:23:12.365Z,34.23
2018-12-14T04:25:40.492Z,37.60
2018-12-14T04:28:08.606Z,34.47
2018-12-14T04:30:36.776Z,32.70
2018-12-14T04:33:04.922Z,32.20
2018-12-14T04:35:33.057Z,36.03
2018-12-14T04:38:01.201Z,38.47
2018-12-14T04:40:29.354Z,34.03
2018-12-14T04:42:57.515Z,35.87
2018-12-14T04:45:25.637Z,43.37
2018-12-14T04:47:53.741Z,34.83
2018-12-14T04:50:21.875Z,35.60
2018-12-14T04:52:49.991Z,40.27
2018-12-14T04:55:18.226Z,33.33
2018-12-14T04:57:46.342Z,38.00
2018-12-14T05:00:14.650Z,37.87
2018-12-14T05:02:42.777Z,40.30
2018-12-14T05:05:10.893Z,45.63
2018-12-14T05:07:39.073Z,40.47
2018-12-14T05:10:07.273Z,41.23
2018-12-14T05:12:35.425Z,40.83
2018-12-14T05:15:04.506Z,39.23
2018-12-14T05:17:32.622Z,35.20
2018-12-14T05:20:00.733Z,40.77
2018-12-14T05:22:28.865Z,39.23
2018-12-14T05:24:57.053Z,41.80
2018-12-14T05:27:25.365Z,44.77
2018-12-14T05:29:53.899Z,40.63
2018-12-14T05:32:22.040Z,36.77
2018-12-14T05:34:50.143Z,34.60
2018-12-14T05:37:18.373Z,39.13
2018-12-14T05:39:46.514Z,40.33
2018-12-14T05:42:14.624Z,38.67
2018-12-14T05:44:42.789Z,38.97
2018-12-14T05:47:11.012Z,42.20
2018-12-14T05:49:39.121Z,40.83
2018-12-14T05:52:07.229Z,38.43
2018-12-14T05:54:35.394Z,42.60
2018-12-14T05:57:03.501Z,37.93
2018-12-14T05:59:31.637Z,46.33
2018-12-14T06:01:59.862Z,40.10
2018-12-14T06:04:27.978Z,44.97
2018-12-14T06:06:56.271Z,37.80
2018-12-14T06:09:24.408Z,40.77
2018-12-14T06:11:52.544Z,44.03
2018-12-14T06:14:20.684Z,37.57
2018-12-14T06:16:48.817Z,41.40
2018-12-14T06:19:16.959Z,36.67
2018-12-14T06:21:45.106Z,39.87
2018-12-14T06:24:13.268Z,39.20
2018-12-14T06:26:41.385Z,40.53
2018-12-14T06:29:09.528Z,37.40
2018-12-14T06:31:37.628Z,37.20
2018-12-14T06:34:05.761Z,33.83
2018-12-14T06:36:33.873Z,35.37
2018-12-14T06:39:02.011Z,34.40
2018-12-14T06:41:30.121Z,35.23
2018-12-14T06:43:58.285Z,41.90
2018-12-14T06:46:26.401Z,34.23
2018-12-14T06:48:54.509Z,37.30
2018-12-14T06:51:22.670Z,30.63
2018-12-14T06:53:50.879Z,32.93
2018-12-14T06:56:19.047Z,35.93
2018-12-14T06:58:47.181Z,34.27
2018-12-14T07:01:15.345Z,33.27
2018-12-14T07:03:43.466Z,33.13
2018-12-14T07:06:11.608Z,35.67
2018-12-14T07:08:39.885Z,33.63
2018-12-14T07:11:08.025Z,28.43
2018-12-14T07:13:36.178Z,35.17
2018-12-14T07:16:04.290Z,45.10
2018-12-14T07:18:32.447Z,37.17
2018-12-14T07:21:00.580Z,33.00
2018-12-14T07:23:28.760Z,34.60
2018-12-14T07:25:57.003Z,38.90
2018-12-14T07:28:25.153Z,38.80
2018-12-14T07:30:53.284Z,37.80
2018-12-14T07:33:21.414Z,42.00
2018-12-14T07:35:49.554Z,44.20
2018-12-14T07:38:17.685Z,35.10
2018-12-14T07:40:45.795Z,36.80
2018-12-14T07:43:13.924Z,32.37
2018-12-14T07:45:42.043Z,35.33
2018-12-14T07:48:10.173Z,32.90
2018-12-14T07:50:38.329Z,32.23
2018-12-14T07:53:09.218Z,28.70
2018-12-14T07:55:36.680Z,30.93
2018-12-14T07:58:04.810Z,32.27
2018-12-14T08:00:32.980Z,32.33
2018-12-14T08:03:01.097Z,31.87
2018-12-14T08:05:29.255Z,29.90
2018-12-14T08:07:57.494Z,33.00
2018-12-14T08:10:25.945Z,34.10
2018-12-14T08:12:54.713Z,26.77
2018-12-14T08:15:23.221Z,30.47
2018-12-14T08:17:51.354Z,29.90
2018-12-14T08:20:19.565Z,27.43
2018-12-14T08:22:47.722Z,25.60
2018-12-14T08:25:15.834Z,28.10
2018-12-14T08:27:43.941Z,24.43
2018-12-14T08:30:12.074Z,29.97
2018-12-14T08:32:40.210Z,26.97
2018-12-14T08:35:08.346Z,29.73
2018-12-14T08:37:36.481Z,31.27
2018-12-14T08:40:06.181Z,25.37
2018-12-14T08:42:34.321Z,27.37
2018-12-14T08:45:02.546Z,26.43
2018-12-14T08:47:30.716Z,26.47
2018-12-14T08:49:58.864Z,23.80
2018-12-14T08:52:27.017Z,26.83
2018-12-14T08:54:55.145Z,25.97
2018-12-14T08:57:23.301Z,24.47
2018-12-14T08:59:51.454Z,26.63
2018-12-14T09:02:19.617Z,29.47
2018-12-14T09:04:47.729Z,23.93
2018-12-14T09:07:16.137Z,24.97
2018-12-14T09:09:44.293Z,27.17
2018-12-14T09:12:12.437Z,23.47
2018-12-14T09:14:40.674Z,24.87
2018-12-14T09:17:08.788Z,20.80
2018-12-14T09:19:36.927Z,22.20
2018-12-14T09:22:05.056Z,22.00
2018-12-14T09:24:33.234Z,20.83
2018-12-14T09:27:01.357Z,23.20
2018-12-14T09:29:29.493Z,26.23
2018-12-14T09:31:57.825Z,22.27
2018-12-14T09:34:25.937Z,20.53
2018-12-14T09:36:54.073Z,20.97
2018-12-14T09:39:22.206Z,23.93
2018-12-14T09:41:50.332Z,23.43
2018-12-14T09:44:18.446Z,24.43
2018-12-14T09:46:47.265Z,22.20
2018-12-14T09:49:16.028Z,26.10
2018-12-14T09:51:49.581Z,26.70
2018-12-14T09:54:17.739Z,24.20
2018-12-14T09:56:45.859Z,21.40
2018-12-14T09:59:14.060Z,28.53
2018-12-14T10:01:42.164Z,24.40
2018-12-14T10:04:10.282Z,25.87
2018-12-14T10:06:38.415Z,22.53
2018-12-14T10:09:06.663Z,23.47
2018-12-14T10:11:37.005Z,22.10
2018-12-14T10:14:05.188Z,23.57
2018-12-14T10:16:33.385Z,20.37
2018-12-14T10:19:01.790Z,23.27
2018-12-14T10:21:29.944Z,23.37
2018-12-14T10:23:58.045Z,23.07
2018-12-14T10:26:26.200Z,22.50
2018-12-14T10:28:54.361Z,21.00
2018-12-14T10:31:22.517Z,23.03
2018-12-14T10:33:50.622Z,21.60
2018-12-14T10:36:18.774Z,18.13
2018-12-14T10:38:46.918Z,20.93
2018-12-14T10:41:15.055Z,18.73
2018-12-14T10:43:43.189Z,20.17
2018-12-14T10:46:11.354Z,17.40
2018-12-14T10:48:39.466Z,22.43
2018-12-14T10:51:07.588Z,17.10
2018-12-14T10:53:35.849Z,17.90
2018-12-14T10:56:03.960Z,16.20
2018-12-14T10:58:32.108Z,19.97
2018-12-14T11:01:06.029Z,20.60
2018-12-14T11:03:34.165Z,19.73
2018-12-14T11:06:02.280Z,19.10
2018-12-14T11:08:30.409Z,20.07
2018-12-14T11:10:58.521Z,20.57
2018-12-14T11:13:26.693Z,16.37
2018-12-14T11:15:54.805Z,22.80
2018-12-14T11:18:22.923Z,16.57
2018-12-14T11:20:51.255Z,18.80
2018-12-14T11:23:19.385Z,18.97
2018-12-14T11:25:47.502Z,15.87
2018-12-14T11:28:15.704Z,18.20
2018-12-14T11:30:43.814Z,19.07
2018-12-14T11:33:12.877Z,20.23
2018-12-14T11:35:41.013Z,18.93
2018-12-14T11:38:09.166Z,18.90
2018-12-14T11:40:37.305Z,20.90
2018-12-14T11:43:05.475Z,15.00
2018-12-14T11:45:33.586Z,15.77
2018-12-14T11:48:01.686Z,16.30
2018-12-14T11:50:29.851Z,15.93
2018-12-14T11:52:57.946Z,16.50
2018-12-14T11:55:26.221Z,15.87
2018-12-14T11:57:54.327Z,13.87
2018-12-14T12:00:22.539Z,17.53
2018-12-14T12:02:50.675Z,17.77
2018-12-14T12:05:18.834Z,14.40
2018-12-14T12:07:47.171Z,17.00
2018-12-14T12:10:15.334Z,18.63
2018-12-14T12:12:43.450Z,16.27
2018-12-14T12:15:11.692Z,19.00
2018-12-14T12:17:40.489Z,16.43
2018-12-14T12:20:08.708Z,12.77
2018-12-14T12:22:36.848Z,16.87
2018-12-14T12:25:05.063Z,16.83
2018-12-14T12:27:33.198Z,16.07
2018-12-14T12:30:01.295Z,16.20
2018-12-14T12:32:29.520Z,16.23
2018-12-14T12:34:57.636Z,15.17
2018-12-14T12:37:25.742Z,15.63
2018-12-14T12:39:53.896Z,15.50
2018-12-14T12:42:22.054Z,17.43
2018-12-14T12:44:50.297Z,14.87
2018-12-14T12:47:18.401Z,15.03
2018-12-14T12:49:46.562Z,16.93
2018-12-14T12:52:14.721Z,16.90
2018-12-14T12:54:42.877Z,15.50
2018-12-14T12:57:11.015Z,16.87
2018-12-14T12:59:39.226Z,14.47
2018-12-14T13:02:07.385Z,14.97
2018-12-14T13:04:35.692Z,14.97
2018-12-14T13:07:03.922Z,16.07
2018-12-14T13:09:32.040Z,15.90
2018-12-14T13:12:00.192Z,13.97
2018-12-14T13:14:28.353Z,14.93
2018-12-14T13:16:57.472Z,16.07
2018-12-14T13:19:25.654Z,15.27
2018-12-14T13:21:53.769Z,13.83
2018-12-14T13:24:21.901Z,14.10
2018-12-14T13:26:50.026Z,16.33
2018-12-14T13:29:18.181Z,15.50
2018-12-14T13:31:46.284Z,15.17
2018-12-14T13:34:14.525Z,16.30
2018-12-14T13:36:42.761Z,15.13
2018-12-14T13:39:10.932Z,15.83
2018-12-14T13:41:39.184Z,16.27
2018-12-14T13:44:07.328Z,15.50
2018-12-14T13:46:35.438Z,17.13
2018-12-14T13:49:03.634Z,17.60
2018-12-14T13:51:31.866Z,15.97
2018-12-14T13:53:59.978Z,16.73
2018-12-14T13:56:28.110Z,15.83
2018-12-14T13:58:56.282Z,17.77
2018-12-14T14:01:24.830Z,17.43
2018-12-14T14:03:52.964Z,16.73
2018-12-14T14:06:21.111Z,16.27
2018-12-14T14:08:52.263Z,16.40
2018-12-14T14:11:20.370Z,16.87
2018-12-14T14:13:48.485Z,18.47
2018-12-14T14:16:16.758Z,15.33
2018-12-14T14:18:44.925Z,14.97
2018-12-14T14:21:13.055Z,18.03
2018-12-14T14:23:41.166Z,20.73
2018-12-14T14:26:09.730Z,21.50
2018-12-14T14:28:37.848Z,24.20
2018-12-14T14:31:06.014Z,22.83
2018-12-14T14:33:34.125Z,21.30
2018-12-14T14:36:02.402Z,28.70
2018-12-14T14:38:30.585Z,32.03
2018-12-14T14:40:58.741Z,30.83
2018-12-14T14:43:26.906Z,21.23
2018-12-14T14:45:55.041Z,23.20
2018-12-14T14:48:23.169Z,21.93
2018-12-14T14:50:51.326Z,23.37
2018-12-14T14:53:19.473Z,20.77
2018-12-14T14:55:47.588Z,21.90
2018-12-14T14:58:15.820Z,21.60
2018-12-14T15:00:44.077Z,27.50
2018-12-14T15:03:12.353Z,28.53
2018-12-14T15:05:40.526Z,23.27
2018-12-14T15:08:08.772Z,23.90
2018-12-14T15:10:36.887Z,21.00
2018-12-14T15:13:05.029Z,23.33
2018-12-14T15:15:33.273Z,24.67
2018-12-14T15:18:01.410Z,19.57
2018-12-14T15:20:29.599Z,20.23
2018-12-14T15:22:57.765Z,25.57
2018-12-14T15:25:25.906Z,27.13
2018-12-14T15:27:54.054Z,22.43
2018-12-14T15:30:22.165Z,22.00
2018-12-14T15:32:50.318Z,25.17
2018-12-14T15:35:18.474Z,20.23
2018-12-14T15:37:46.664Z,19.27
2018-12-14T15:40:14.787Z,21.07
2018-12-14T15:42:42.910Z,26.87
2018-12-14T15:45:13.210Z,23.23
2018-12-14T15:47:41.201Z,21.83
2018-12-14T15:50:09.454Z,23.00
2018-12-14T15:52:37.590Z,23.63
2018-12-14T15:55:05.972Z,22.63
2018-12-14T15:57:34.126Z,21.03
2018-12-14T16:00:02.248Z,23.47
2018-12-14T16:02:30.382Z,21.70
2018-12-14T16:04:58.521Z,23.77
2018-12-14T16:07:27.833Z,21.93
2018-12-14T16:09:55.947Z,23.03
2018-12-14T16:12:24.217Z,24.70
2018-12-14T16:14:52.342Z,23.90
2018-12-14T16:17:20.494Z,28.83
2018-12-14T16:19:48.665Z,26.33
2018-12-14T16:22:16.852Z,29.83
2018-12-14T16:24:44.975Z,26.90
2018-12-14T16:27:13.145Z,29.23
2018-12-14T16:29:41.257Z,33.50
2018-12-14T16:32:09.727Z,25.83
2018-12-14T16:34:38.753Z,24.27
2018-12-14T16:37:06.888Z,30.57
2018-12-14T16:39:35.126Z,26.53
2018-12-14T16:42:04.045Z,32.93
2018-12-14T16:44:32.151Z,27.53
2018-12-14T16:47:00.273Z,24.57
2018-12-14T16:49:28.429Z,26.60
2018-12-14T16:51:56.541Z,32.13
2018-12-14T16:54:24.701Z,31.43
2018-12-14T16:56:52.812Z,30.57
2018-12-14T16:59:20.979Z,22.37
2018-12-14T17:01:49.092Z,25.90
2018-12-14T17:04:17.228Z,23.07
2018-12-14T17:06:45.478Z,28.23
2018-12-14T17:09:13.647Z,31.10
2018-12-14T17:11:41.885Z,26.73
2018-12-14T17:14:10.051Z,26.20
2018-12-14T17:16:38.166Z,29.73
2018-12-14T17:19:06.284Z,27.27
2018-12-14T17:21:34.422Z,23.93
2018-12-14T17:24:02.554Z,27.93
2018-12-14T17:26:30.771Z,24.47
2018-12-14T17:28:58.886Z,27.40
2018-12-14T17:31:26.994Z,24.30
2018-12-14T17:33:55.159Z,24.53
2018-12-14T17:36:23.302Z,26.17
2018-12-14T17:38:51.441Z,24.00
2018-12-14T17:41:19.577Z,26.83
2018-12-14T17:43:47.745Z,26.90
2018-12-14T17:46:15.859Z,27.97
2018-12-14T17:48:44.048Z,26.17
2018-12-14T17:51:12.213Z,28.97
2018-12-14T17:53:40.360Z,28.87
2018-12-14T17:56:08.510Z,29.57
2018-12-14T17:58:36.674Z,28.13
2018-12-14T18:01:04.791Z,27.57
2018-12-14T18:03:32.967Z,28.37
2018-12-14T18:06:01.086Z,30.23
2018-12-14T18:08:29.218Z,28.47
2018-12-14T18:10:57.410Z,32.30
2018-12-14T18:13:25.549Z,33.20
2018-12-14T18:15:53.663Z,27.17
2018-12-14T18:18:21.793Z,29.37
2018-12-14T18:20:49.935Z,24.17
2018-12-14T18:23:18.047Z,28.90
2018-12-14T18:25:46.182Z,30.63
2018-12-14T18:28:14.388Z,28.43
2018-12-14T18:30:42.538Z,26.07
2018-12-14T18:33:10.821Z,25.70
2018-12-14T18:35:38.938Z,27.53
2018-12-14T18:38:07.097Z,29.40
2018-12-14T18:40:35.245Z,27.50
2018-12-14T18:43:03.430Z,26.23
2018-12-14T18:45:31.575Z,29.13
2018-12-14T18:47:59.713Z,26.77
2018-12-14T18:50:27.853Z,27.27
2018-12-14T18:52:55.986Z,27.67
2018-12-14T18:55:24.111Z,34.67
2018-12-14T18:57:52.245Z,28.90
2018-12-14T19:00:20.445Z,27.73
2018-12-14T19:02:48.553Z,33.03
2018-12-14T19:05:16.694Z,30.37
2018-12-14T19:07:44.826Z,29.00
2018-12-14T19:10:12.970Z,28.20
2018-12-14T19:12:41.211Z,34.70
2018-12-14T19:15:09.345Z,33.07
2018-12-14T19:17:37.477Z,29.93
2018-12-14T19:20:05.832Z,26.87
2018-12-14T19:22:33.946Z,28.67
2018-12-14T19:25:02.087Z,23.27
2018-12-14T19:27:30.226Z,25.47
2018-12-14T19:29:58.370Z,22.40
2018-12-14T19:32:26.554Z,26.07
2018-12-14T19:34:54.685Z,26.73
2018-12-14T19:37:22.855Z,26.40
2018-12-14T19:39:50.970Z,24.73
2018-12-14T19:42:19.083Z,25.13
2018-12-14T19:44:47.212Z,24.27
2018-12-14T19:47:15.445Z,25.70
2018-12-14T19:49:43.771Z,25.30
2018-12-14T19:52:12.187Z,26.23
2018-12-14T19:54:40.523Z,24.80
2018-12-14T19:57:13.204Z,26.67
2018-12-14T19:59:41.341Z,22.53
2018-12-14T20:02:09.528Z,25.30
2018-12-14T20:04:37.662Z,25.93
2018-12-14T20:07:05.785Z,26.43
2018-12-14T20:09:33.973Z,25.40
2018-12-14T20:12:04.571Z,22.30
2018-12-14T20:14:35.612Z,26.70
2018-12-14T20:17:05.335Z,28.90
2018-12-14T20:19:33.971Z,25.10
2018-12-14T20:22:05.227Z,27.03
2018-12-14T20:24:33.364Z,25.20
2018-12-14T20:27:01.478Z,26.80
2018-12-14T20:29:29.709Z,28.23
2018-12-14T20:31:57.828Z,27.50
2018-12-14T20:34:25.965Z,24.77
2018-12-14T20:36:54.146Z,25.20
2018-12-14T20:39:24.180Z,25.23
2018-12-14T20:41:52.805Z,25.70
2018-12-14T20:44:20.956Z,24.83
2018-12-14T20:46:49.112Z,25.73
2018-12-14T20:49:17.256Z,23.77
2018-12-14T20:51:45.399Z,24.60
2018-12-14T20:54:13.578Z,23.40
2018-12-14T20:56:41.727Z,29.70
2018-12-14T20:59:09.868Z,26.50
2018-12-14T21:01:37.996Z,29.40
2018-12-14T21:04:06.158Z,27.43
2018-12-14T21:06:34.327Z,30.37
2018-12-14T21:09:02.444Z,25.97
2018-12-14T21:11:30.583Z,24.27
2018-12-14T21:13:58.768Z,24.73
2018-12-14T21:16:26.898Z,26.00
2018-12-14T21:18:55.058Z,28.37
2018-12-14T21:21:23.190Z,26.70
2018-12-14T21:23:51.446Z,28.57
2018-12-14T21:26:19.548Z,30.03
2018-12-14T21:28:47.663Z,27.07
2018-12-14T21:31:15.897Z,27.83
2018-12-14T21:33:44.030Z,26.97
2018-12-14T21:36:12.153Z,26.47
2018-12-14T21:38:40.368Z,25.43
2018-12-14T21:41:08.506Z,27.03
2018-12-14T21:43:36.615Z,29.23
2018-12-14T21:46:04.754Z,26.37
2018-12-14T21:48:32.899Z,28.63
2018-12-14T21:51:01.038Z,29.47
2018-12-14T21:53:29.185Z,28.73
2018-12-14T21:55:57.318Z,29.33
2018-12-14T21:58:25.465Z,29.20
2018-12-14T22:00:53.604Z,25.73
2018-12-14T22:03:21.770Z,27.87
2018-12-14T22:05:49.913Z,31.43
2018-12-14T22:08:18.076Z,29.10
2018-12-14T22:10:46.218Z,24.70
2018-12-14T22:13:14.354Z,28.13
2018-12-14T22:15:42.489Z,31.17
2018-12-14T22:18:10.679Z,32.43
2018-12-14T22:20:38.832Z,25.03
2018-12-14T22:23:06.962Z,27.13
2018-12-14T22:25:35.134Z,29.77
2018-12-14T22:28:03.316Z,28.90
2018-12-14T22:30:31.474Z,27.87
2018-12-14T22:32:59.613Z,30.60
2018-12-14T22:35:27.774Z,29.87
2018-12-14T22:37:55.891Z,30.63
2018-12-14T22:40:24.124Z,35.30
2018-12-14T22:42:52.305Z,31.07
2018-12-14T22:45:20.464Z,30.30
2018-12-14T22:47:48.575Z,29.07
2018-12-14T22:50:16.849Z,30.57
2018-12-14T22:52:45.107Z,33.77
2018-12-14T22:55:13.218Z,31.37
2018-12-14T22:57:41.355Z,32.87
2018-12-14T23:00:11.929Z,35.10
2018-12-14T23:02:40.055Z,32.53
2018-12-14T23:05:08.164Z,32.13
2018-12-14T23:07:36.304Z,36.47
2018-12-14T23:10:05.340Z,34.27
2018-12-14T23:12:33.579Z,32.67
2018-12-14T23:15:01.718Z,33.60
2018-12-14T23:17:29.822Z,34.07
2018-12-14T23:19:57.989Z,33.77
2018-12-14T23:22:26.103Z,38.03
2018-12-14T23:24:54.268Z,32.63
2018-12-14T23:27:22.378Z,34.87
2018-12-14T23:29:50.514Z,30.83
2018-12-14T23:32:18.638Z,36.13
2018-12-14T23:34:46.800Z,34.60
2018-12-14T23:37:14.936Z,38.57
2018-12-14T23:39:43.080Z,35.67
2018-12-14T23:42:11.314Z,34.17
2018-12-14T23:44:39.456Z,32.17
2018-12-14T23:47:07.601Z,34.43
2018-12-14T23:49:35.713Z,37.20
2018-12-14T23:52:03.878Z,33.97
2018-12-14T23:54:31.998Z,38.53
2018-12-14T23:57:00.177Z,36.57
2018-12-14T23:59:28.289Z,32.63
